Aérodrome :
LOGIN :

S'inscrire | Disclaimer

   EN    FR    IT 

 










Légende :    VFR   VFR Marginal   IFR   IFR Intensif   IFR Très Intensif
Visi : 
Plafond : 
>= 8 km
>= 3000ft
5 à 8 km
1000 à 3000 ft
1500m à 5 km
500 à 1000 ft
800 à 1500m
200 à 500 ft
< 800m
< 200 ft
Symboles :   Orages  Brouillard  Fortes neiges  Fortes précipitations  Vent > 20 kt
SIGMETs :   Divers  Orages  Givrage  Turbulence  Onde Orograph.  Cendres Volcan.






- Altitude de l'aérodrome : 102 ft
- Code IATA : EXT


EGTE - Exeter

DERNIER METAR :
  • 272050Z VRB02KT CAVOK 04/02 Q1015

METARs EXPIRÉS :
  • 272020Z 22007KT CAVOK 04/01 Q1015
  • 271950Z 25003KT CAVOK 04/01 Q1015
  • 271920Z VRB03KT CAVOK 04/00 Q1015
  • 271850Z 27005KT 9999 FEW040 05/01 Q1014
  • 271820Z 27007KT 9999 FEW040 05/00 Q1013

TAF TAF EGTE
Valide du 27 à 21h jusqu'au 28 à 04h UTC


272000Z 2721/2804 VRB03KT 9999 FEW035
PROB30 2803/2804 18010KT



MET'MAP, la Météo Aéronautique d'un coup d'oeil ! - Copyright ORBIFLY Décembre 2007 - Disclaimer

ORBIFLY MET'MAP TEAM :

Programmation & Développement : Alexandra Zaïnal
Sur une idée originale de : Baudouin d'Aumeries
Assistance à la programmation : Marc-Olivier Méhu
Soutien technique & logistique : Manuel Goepfert

Contact : metmap@orbifly.com




SOURCES & CREDITS :

   NOAA